createdAt,value
2023-05-10T00:02:15.198Z,75.17
2023-05-10T00:04:42.741Z,74.90
2023-05-10T00:07:11.155Z,74.40
2023-05-10T00:09:38.798Z,74.24
2023-05-10T00:12:06.834Z,74.14
2023-05-10T00:14:34.407Z,73.84
2023-05-10T00:17:03.407Z,73.79
2023-05-10T00:19:30.968Z,73.59
2023-05-10T00:21:58.483Z,73.56
2023-05-10T00:24:26.055Z,73.34
2023-05-10T00:26:53.581Z,74.73
2023-05-10T00:29:21.273Z,73.69
2023-05-10T00:31:48.848Z,73.04
2023-05-10T00:34:17.761Z,73.53
2023-05-10T00:36:45.334Z,73.31
2023-05-10T00:39:13.236Z,74.04
2023-05-10T00:41:40.713Z,73.76
2023-05-10T00:44:08.309Z,73.93
2023-05-10T00:46:37.018Z,73.52
2023-05-10T00:49:05.286Z,72.82
2023-05-10T00:51:34.472Z,72.90
2023-05-10T00:54:02.200Z,73.59
2023-05-10T00:56:30.761Z,73.52
2023-05-10T00:58:58.579Z,72.97
2023-05-10T01:01:26.669Z,72.53
2023-05-10T01:03:54.564Z,72.44
2023-05-10T01:06:22.200Z,73.02
2023-05-10T01:08:51.741Z,73.23
2023-05-10T01:11:19.351Z,72.67
2023-05-10T01:13:52.756Z,72.76
2023-05-10T01:16:20.369Z,72.77
2023-05-10T01:18:48.424Z,73.65
2023-05-10T01:21:24.143Z,73.87
2023-05-10T01:24:21.246Z,73.44
2023-05-10T01:27:17.788Z,73.25
2023-05-10T01:30:15.985Z,75.03
2023-05-10T01:32:53.262Z,74.56
2023-05-10T01:35:28.593Z,73.98
2023-05-10T01:38:05.910Z,74.17
2023-05-10T01:40:39.413Z,76.05
2023-05-10T01:43:13.372Z,75.01
2023-05-10T01:45:49.071Z,75.80
2023-05-10T01:48:20.344Z,75.26
2023-05-10T01:50:49.941Z,74.89
2023-05-10T01:53:21.769Z,75.15
2023-05-10T01:55:50.490Z,75.67
2023-05-10T01:58:22.995Z,75.04
2023-05-10T02:00:53.407Z,75.18
2023-05-10T02:03:25.369Z,75.46
2023-05-10T02:05:53.919Z,74.17
2023-05-10T02:08:23.069Z,73.93
2023-05-10T02:10:52.539Z,74.73
2023-05-10T02:13:21.178Z,74.67
2023-05-10T02:15:50.593Z,75.56
2023-05-10T02:18:19.859Z,75.31
2023-05-10T02:20:49.566Z,74.89
2023-05-10T02:23:19.425Z,75.23
2023-05-10T02:25:49.346Z,74.77
2023-05-10T02:28:19.014Z,74.38
2023-05-10T02:30:47.026Z,74.36
2023-05-10T02:33:16.242Z,74.42
2023-05-10T02:35:44.497Z,74.13
2023-05-10T02:38:13.801Z,74.34
2023-05-10T02:40:43.329Z,74.31
2023-05-10T02:43:15.212Z,74.91
2023-05-10T02:45:45.021Z,74.85
2023-05-10T02:48:12.603Z,74.62
2023-05-10T02:50:43.633Z,74.88
2023-05-10T02:53:17.313Z,74.92
2023-05-10T02:55:48.450Z,75.02
2023-05-10T02:58:15.955Z,75.43
2023-05-10T03:00:43.480Z,77.21
2023-05-10T03:03:11.016Z,76.48
2023-05-10T03:05:38.514Z,76.03
2023-05-10T03:08:07.027Z,75.49
2023-05-10T03:10:43.336Z,75.37
2023-05-10T03:13:21.052Z,75.40
2023-05-10T03:15:53.545Z,76.02
2023-05-10T03:18:25.216Z,75.74
2023-05-10T03:20:58.490Z,75.83
2023-05-10T03:23:32.058Z,75.68
2023-05-10T03:26:02.192Z,75.37
2023-05-10T03:28:29.866Z,74.97
2023-05-10T03:30:58.593Z,74.72
2023-05-10T03:33:26.169Z,74.94
2023-05-10T03:35:53.706Z,74.53
2023-05-10T03:38:21.199Z,74.91
2023-05-10T03:40:48.705Z,75.32
2023-05-10T03:43:17.600Z,74.38
2023-05-10T03:45:45.108Z,74.21
2023-05-10T03:48:14.524Z,74.53
2023-05-10T03:50:42.049Z,74.57
2023-05-10T03:53:09.524Z,74.59
2023-05-10T03:55:37.468Z,74.97
2023-05-10T03:58:05.078Z,75.15
2023-05-10T04:00:34.067Z,74.89
2023-05-10T04:03:01.623Z,75.17
2023-05-10T04:05:29.212Z,75.19
2023-05-10T04:07:56.764Z,74.88
2023-05-10T04:10:24.284Z,74.81
2023-05-10T04:12:51.813Z,74.95
2023-05-10T04:15:19.413Z,74.58
2023-05-10T04:17:48.322Z,74.73
2023-05-10T04:20:16.372Z,75.02
2023-05-10T04:22:44.104Z,74.68
2023-05-10T04:25:11.720Z,74.65
2023-05-10T04:27:39.203Z,74.60
2023-05-10T04:30:08.166Z,74.91
2023-05-10T04:32:35.672Z,73.92
2023-05-10T04:35:05.623Z,74.16
2023-05-10T04:37:33.175Z,74.08
2023-05-10T04:40:01.625Z,74.12
2023-05-10T04:42:29.146Z,73.90
2023-05-10T04:44:56.665Z,74.32
2023-05-10T04:47:24.184Z,74.84
2023-05-10T04:49:51.690Z,75.00
2023-05-10T04:52:20.503Z,74.87
2023-05-10T04:54:48.132Z,73.84
2023-05-10T04:57:15.648Z,73.99
2023-05-10T04:59:43.405Z,74.39
2023-05-10T05:02:10.969Z,74.71
2023-05-10T05:04:38.501Z,74.36
2023-05-10T05:07:06.004Z,74.55
2023-05-10T05:09:34.844Z,74.31
2023-05-10T05:12:02.501Z,73.55
2023-05-10T05:14:29.984Z,73.35
2023-05-10T05:16:57.808Z,73.40
2023-05-10T05:19:25.561Z,73.35
2023-05-10T05:21:53.123Z,73.74
2023-05-10T05:24:20.701Z,73.41
2023-05-10T05:26:49.639Z,73.68
2023-05-10T05:29:17.232Z,72.97
2023-05-10T05:31:44.905Z,72.98
2023-05-10T05:34:12.863Z,72.74
2023-05-10T05:36:40.414Z,72.19
2023-05-10T05:39:08.292Z,72.03
2023-05-10T05:41:35.955Z,72.30
2023-05-10T05:44:04.887Z,72.14
2023-05-10T05:46:32.469Z,72.00
2023-05-10T05:49:00.173Z,72.13
2023-05-10T05:51:27.801Z,72.42
2023-05-10T05:53:55.461Z,72.07
2023-05-10T05:56:25.422Z,72.00
2023-05-10T05:58:53.224Z,71.47
2023-05-10T06:01:22.444Z,71.93
2023-05-10T06:03:51.142Z,71.60
2023-05-10T06:06:20.878Z,71.36
2023-05-10T06:08:48.525Z,71.52
2023-05-10T06:11:16.182Z,72.77
2023-05-10T06:13:43.799Z,71.52
2023-05-10T06:16:11.473Z,71.92
2023-05-10T06:18:40.512Z,71.83
2023-05-10T06:21:08.116Z,71.92
2023-05-10T06:23:36.690Z,71.50
2023-05-10T06:26:04.767Z,71.17
2023-05-10T06:28:33.198Z,70.39
2023-05-10T06:31:00.853Z,71.68
2023-05-10T06:33:28.501Z,71.21
2023-05-10T06:35:58.073Z,70.37
2023-05-10T06:38:25.676Z,70.28
2023-05-10T06:40:53.246Z,68.06
2023-05-10T06:43:20.844Z,65.86
2023-05-10T06:45:49.741Z,66.25
2023-05-10T06:48:17.391Z,65.51
2023-05-10T06:50:44.998Z,64.97
2023-05-10T06:53:14.147Z,63.37
2023-05-10T06:55:41.779Z,63.82
2023-05-10T06:58:09.277Z,62.97
2023-05-10T07:00:40.110Z,61.78
2023-05-10T07:03:08.096Z,62.33
2023-05-10T07:05:36.106Z,61.54
2023-05-10T07:08:03.891Z,62.04
2023-05-10T07:10:32.832Z,62.02
2023-05-10T07:13:01.336Z,62.38
2023-05-10T07:15:29.413Z,62.63
2023-05-10T07:17:57.096Z,63.20
2023-05-10T07:20:24.669Z,63.48
2023-05-10T07:22:52.216Z,62.48
2023-05-10T07:25:20.007Z,62.40
2023-05-10T07:27:50.128Z,63.18
2023-05-10T07:30:18.307Z,62.92
2023-05-10T07:32:45.897Z,62.90
2023-05-10T07:35:13.421Z,61.64
2023-05-10T07:37:40.940Z,62.08
2023-05-10T07:40:09.782Z,62.10
2023-05-10T07:42:37.258Z,61.57
2023-05-10T07:45:07.324Z,61.81
2023-05-10T07:47:34.890Z,61.88
2023-05-10T07:50:02.652Z,61.77
2023-05-10T07:52:30.342Z,61.66
2023-05-10T07:54:58.117Z,61.76
2023-05-10T07:57:25.636Z,61.22
2023-05-10T07:59:53.161Z,60.82
2023-05-10T08:02:22.039Z,60.62
2023-05-10T08:04:49.540Z,60.65
2023-05-10T08:07:17.220Z,60.48
2023-05-10T08:09:44.893Z,60.50
2023-05-10T08:12:12.428Z,61.03
2023-05-10T08:14:39.936Z,60.28
2023-05-10T08:17:07.454Z,59.96
2023-05-10T08:19:36.323Z,60.69
2023-05-10T08:22:03.864Z,59.63
2023-05-10T08:24:31.356Z,58.67
2023-05-10T08:26:59.218Z,59.83
2023-05-10T08:29:28.292Z,58.74
2023-05-10T08:31:56.145Z,58.40
2023-05-10T08:34:24.635Z,58.22
2023-05-10T08:36:53.882Z,57.50
2023-05-10T08:39:29.844Z,58.32
2023-05-10T08:42:03.344Z,57.75
2023-05-10T08:44:32.607Z,58.24
2023-05-10T08:47:02.710Z,56.95
2023-05-10T08:49:33.383Z,56.66
2023-05-10T08:52:06.220Z,57.54
2023-05-10T08:54:34.621Z,56.84
2023-05-10T08:57:02.197Z,55.85
2023-05-10T08:59:30.349Z,58.86
2023-05-10T09:01:59.939Z,58.94
2023-05-10T09:04:27.617Z,57.76
2023-05-10T09:06:56.013Z,57.13
2023-05-10T09:09:27.183Z,57.86
2023-05-10T09:11:55.737Z,57.48
2023-05-10T09:14:26.567Z,57.70
2023-05-10T09:16:55.113Z,57.66
2023-05-10T09:19:22.706Z,57.45
2023-05-10T09:21:50.862Z,57.16
2023-05-10T09:24:18.475Z,57.13
2023-05-10T09:26:50.333Z,55.42
2023-05-10T09:29:18.196Z,56.41
2023-05-10T09:31:48.236Z,57.55
2023-05-10T09:34:20.397Z,57.03
2023-05-10T09:36:55.582Z,57.00
2023-05-10T09:39:31.493Z,55.85
2023-05-10T09:42:01.792Z,56.23
2023-05-10T09:44:29.321Z,55.23
2023-05-10T09:46:57.031Z,56.57
2023-05-10T09:49:24.652Z,54.97
2023-05-10T09:52:02.967Z,55.02
2023-05-10T09:54:30.660Z,54.73
2023-05-10T09:56:58.432Z,52.42
2023-05-10T09:59:30.532Z,53.42
2023-05-10T10:01:59.314Z,54.11
2023-05-10T10:04:28.041Z,54.30
2023-05-10T10:07:03.522Z,53.35
2023-05-10T10:09:31.768Z,54.39
2023-05-10T10:11:59.698Z,53.77
2023-05-10T10:14:28.715Z,54.22
2023-05-10T10:17:07.757Z,54.14
2023-05-10T10:19:37.660Z,54.39
2023-05-10T10:22:05.981Z,52.93
2023-05-10T10:24:33.781Z,53.22
2023-05-10T10:27:10.819Z,53.92
2023-05-10T10:29:49.404Z,53.01
2023-05-10T10:32:27.402Z,52.85
2023-05-10T10:34:57.061Z,51.79
2023-05-10T10:37:24.598Z,52.32
2023-05-10T10:39:52.434Z,51.94
2023-05-10T10:42:47.301Z,50.54
2023-05-10T10:45:16.412Z,49.14
2023-05-10T10:47:44.840Z,49.12
2023-05-10T10:50:13.812Z,49.24
2023-05-10T10:52:42.208Z,50.10
2023-05-10T10:55:11.461Z,49.26
2023-05-10T10:57:47.911Z,49.75
2023-05-10T11:00:28.808Z,50.17
2023-05-10T11:02:59.410Z,52.09
2023-05-10T11:05:41.095Z,49.13
2023-05-10T11:08:13.761Z,48.62
2023-05-10T11:10:42.245Z,49.16
2023-05-10T11:13:11.075Z,49.96
2023-05-10T11:15:41.178Z,49.79
2023-05-10T11:18:20.473Z,51.01
2023-05-10T11:20:52.987Z,51.37
2023-05-10T11:23:21.948Z,51.98
2023-05-10T11:25:51.352Z,52.36
2023-05-10T11:28:20.879Z,51.91
2023-05-10T11:30:50.181Z,52.09
2023-05-10T11:33:20.369Z,52.00
2023-05-10T11:35:48.272Z,52.29
2023-05-10T11:38:16.324Z,51.15
2023-05-10T11:40:44.281Z,50.81
2023-05-10T11:43:13.118Z,50.85
2023-05-10T11:45:43.082Z,50.00
2023-05-10T11:48:12.027Z,48.14
2023-05-10T11:50:39.596Z,49.03
2023-05-10T11:53:07.114Z,48.21
2023-05-10T11:55:35.958Z,47.33
2023-05-10T11:58:04.591Z,48.03
2023-05-10T12:00:33.042Z,48.44
2023-05-10T12:03:02.243Z,47.99
2023-05-10T12:05:34.993Z,47.82
2023-05-10T12:08:17.571Z,49.08
2023-05-10T12:10:45.118Z,46.91
2023-05-10T12:13:13.910Z,48.51
2023-05-10T12:15:41.876Z,47.71
2023-05-10T12:18:11.269Z,47.14
2023-05-10T12:20:40.840Z,47.48
2023-05-10T12:23:10.914Z,47.82
2023-05-10T12:25:39.694Z,47.30
2023-05-10T12:28:08.624Z,46.79
2023-05-10T12:30:38.052Z,46.74
2023-05-10T12:33:10.953Z,46.41
2023-05-10T12:35:50.248Z,45.74
2023-05-10T12:38:30.426Z,43.74
2023-05-10T12:40:58.771Z,45.40
2023-05-10T12:43:26.340Z,44.86
2023-05-10T12:45:54.145Z,43.44
2023-05-10T12:48:21.962Z,43.84
2023-05-10T12:50:50.790Z,44.14
2023-05-10T12:53:18.862Z,44.16
2023-05-10T12:55:46.625Z,44.74
2023-05-10T12:58:27.525Z,44.32
2023-05-10T13:01:01.845Z,43.81
2023-05-10T13:03:29.371Z,44.02
2023-05-10T13:05:58.253Z,44.49
2023-05-10T13:08:26.980Z,44.19
2023-05-10T13:10:54.581Z,44.89
2023-05-10T13:13:22.095Z,45.56
2023-05-10T13:15:49.653Z,45.96
2023-05-10T13:18:17.320Z,46.20
2023-05-10T13:20:45.183Z,44.76
2023-05-10T13:23:14.041Z,45.25
2023-05-10T13:25:41.570Z,45.47
2023-05-10T13:28:09.060Z,44.90
2023-05-10T13:30:36.737Z,44.78
2023-05-10T13:33:04.357Z,44.89
2023-05-10T13:35:31.890Z,45.30
2023-05-10T13:37:59.594Z,45.22
2023-05-10T13:40:28.924Z,44.38
2023-05-10T13:42:56.498Z,45.43
2023-05-10T13:45:24.076Z,44.80
2023-05-10T13:47:53.024Z,44.22
2023-05-10T13:50:21.022Z,43.72
2023-05-10T13:52:48.528Z,44.57
2023-05-10T13:55:16.448Z,50.93
2023-05-10T13:57:45.754Z,53.80
2023-05-10T14:00:14.398Z,54.49
2023-05-10T14:02:42.052Z,51.96
2023-05-10T14:05:09.920Z,50.84
2023-05-10T14:07:37.783Z,49.99
2023-05-10T14:10:06.198Z,50.82
2023-05-10T14:12:33.824Z,50.32
2023-05-10T14:15:03.226Z,51.29
2023-05-10T14:17:30.724Z,51.13
2023-05-10T14:19:58.315Z,52.08
2023-05-10T14:22:25.874Z,52.36
2023-05-10T14:24:53.351Z,51.59
2023-05-10T14:27:20.881Z,51.28
2023-05-10T14:29:49.103Z,51.58
2023-05-10T14:32:18.404Z,51.61
2023-05-10T14:34:45.941Z,52.05
2023-05-10T14:37:15.649Z,52.36
2023-05-10T14:39:43.322Z,52.56
2023-05-10T14:42:10.887Z,52.33
2023-05-10T14:44:38.879Z,53.75
2023-05-10T14:47:06.724Z,54.13
2023-05-10T14:49:35.631Z,54.42
2023-05-10T14:52:03.807Z,54.07
2023-05-10T14:54:31.301Z,54.04
2023-05-10T14:56:59.325Z,54.57
2023-05-10T14:59:26.841Z,54.72
2023-05-10T15:01:54.829Z,54.10
2023-05-10T15:04:23.561Z,53.71
2023-05-10T15:06:53.278Z,54.05
2023-05-10T15:09:20.786Z,53.00
2023-05-10T15:11:48.294Z,53.26
2023-05-10T15:14:15.913Z,53.22
2023-05-10T15:16:43.664Z,54.73
2023-05-10T15:19:11.244Z,53.99
2023-05-10T15:21:39.754Z,53.59
2023-05-10T15:24:08.943Z,53.46
2023-05-10T15:26:36.502Z,53.65
2023-05-10T15:29:04.070Z,54.86
2023-05-10T15:31:31.714Z,57.99
2023-05-10T15:34:00.264Z,56.09
2023-05-10T15:36:27.796Z,55.75
2023-05-10T15:38:55.520Z,54.97
2023-05-10T15:41:25.541Z,55.27
2023-05-10T15:43:53.057Z,56.01
2023-05-10T15:46:20.647Z,55.43
2023-05-10T15:48:48.274Z,54.88
2023-05-10T15:51:15.830Z,54.33
2023-05-10T15:53:56.559Z,54.84
2023-05-10T15:56:29.560Z,56.27
2023-05-10T15:58:57.106Z,56.99
2023-05-10T16:01:24.680Z,53.76
2023-05-10T16:03:52.258Z,57.21
2023-05-10T16:06:19.770Z,57.72
2023-05-10T16:08:47.274Z,57.93
2023-05-10T16:11:14.868Z,57.39
2023-05-10T16:13:43.824Z,56.34
2023-05-10T16:16:11.868Z,55.55
2023-05-10T16:18:39.947Z,55.56
2023-05-10T16:21:07.620Z,54.57
2023-05-10T16:23:35.173Z,54.79
2023-05-10T16:26:03.190Z,55.10
2023-05-10T16:28:30.692Z,55.63
2023-05-10T16:30:59.669Z,56.30
2023-05-10T16:33:27.204Z,55.96
2023-05-10T16:35:54.684Z,55.44
2023-05-10T16:38:22.646Z,55.69
2023-05-10T16:40:50.134Z,56.62
2023-05-10T16:43:18.266Z,56.51
2023-05-10T16:45:45.812Z,56.42
2023-05-10T16:48:14.683Z,56.69
2023-05-10T16:50:44.476Z,56.56
2023-05-10T16:53:12.446Z,56.71
2023-05-10T16:55:39.962Z,56.23
2023-05-10T16:58:07.477Z,54.11
2023-05-10T17:00:35.309Z,53.84
2023-05-10T17:03:02.962Z,54.86
2023-05-10T17:05:31.871Z,55.59
2023-05-10T17:07:59.363Z,56.50
2023-05-10T17:10:26.886Z,57.25
2023-05-10T17:12:54.571Z,57.71
2023-05-10T17:15:22.133Z,58.16
2023-05-10T17:17:49.815Z,58.75
2023-05-10T17:20:17.414Z,58.44
2023-05-10T17:22:46.265Z,59.56
2023-05-10T17:25:13.759Z,59.35
2023-05-10T17:27:41.277Z,58.57
2023-05-10T17:30:09.923Z,56.96
2023-05-10T17:32:37.479Z,57.89
2023-05-10T17:35:06.229Z,57.94
2023-05-10T17:37:34.116Z,58.30
2023-05-10T17:40:05.656Z,58.37
2023-05-10T17:42:33.483Z,58.60
2023-05-10T17:45:01.184Z,59.27
2023-05-10T17:47:28.785Z,57.90
2023-05-10T17:49:56.357Z,56.89
2023-05-10T17:52:24.015Z,58.35
2023-05-10T17:54:52.049Z,58.96
2023-05-10T17:57:20.898Z,59.38
2023-05-10T17:59:48.397Z,59.79
2023-05-10T18:02:15.940Z,61.02
2023-05-10T18:04:43.991Z,60.91
2023-05-10T18:07:11.597Z,61.12
2023-05-10T18:09:39.152Z,61.20
2023-05-10T18:12:06.946Z,60.98
2023-05-10T18:14:41.148Z,61.43
2023-05-10T18:17:09.424Z,61.46
2023-05-10T18:19:37.175Z,62.42
2023-05-10T18:22:04.874Z,60.55
2023-05-10T18:27:03.260Z,60.05
2023-05-10T18:29:30.989Z,60.46
2023-05-10T18:31:59.826Z,60.74
2023-05-10T18:34:27.357Z,60.93
2023-05-10T18:36:55.005Z,61.49
2023-05-10T18:39:22.605Z,62.09
2023-05-10T18:41:50.910Z,62.34
2023-05-10T18:44:18.739Z,62.16
2023-05-10T18:46:46.607Z,62.51
2023-05-10T18:49:15.569Z,62.92
2023-05-10T18:51:43.077Z,63.21
2023-05-10T18:54:10.594Z,63.58
2023-05-10T18:56:40.027Z,63.58
2023-05-10T18:59:07.554Z,64.00
2023-05-10T19:01:35.037Z,63.61
2023-05-10T19:04:02.828Z,62.03
2023-05-10T19:06:31.693Z,61.23
2023-05-10T19:08:59.212Z,62.54
2023-05-10T19:11:26.849Z,63.36
2023-05-10T19:13:54.381Z,64.12
2023-05-10T19:16:24.112Z,64.55
2023-05-10T19:18:51.845Z,64.87
2023-05-10T19:21:19.454Z,65.22
2023-05-10T19:23:48.783Z,65.51
2023-05-10T19:26:16.303Z,65.94
2023-05-10T19:28:43.920Z,66.03
2023-05-10T19:31:11.573Z,66.46
2023-05-10T19:33:39.113Z,66.60
2023-05-10T19:36:08.284Z,66.57
2023-05-10T19:38:36.233Z,66.84
2023-05-10T19:41:05.363Z,65.54
2023-05-10T19:43:34.516Z,63.02
2023-05-10T19:46:03.304Z,61.73
2023-05-10T19:48:31.330Z,61.95
2023-05-10T19:51:01.261Z,63.52
2023-05-10T19:53:29.040Z,64.91
2023-05-10T19:55:57.185Z,65.61
2023-05-10T19:58:26.011Z,66.22
2023-05-10T20:00:53.550Z,66.45
2023-05-10T20:03:21.184Z,66.99
2023-05-10T20:05:48.722Z,67.15
2023-05-10T20:08:16.277Z,67.57
2023-05-10T20:10:43.837Z,67.59
2023-05-10T20:13:11.366Z,66.28
2023-05-10T20:15:40.213Z,65.20
2023-05-10T20:18:07.845Z,64.67
2023-05-10T20:20:35.526Z,65.74
2023-05-10T20:23:03.057Z,66.23
2023-05-10T20:25:30.744Z,66.76
2023-05-10T20:27:58.259Z,67.13
2023-05-10T20:30:25.873Z,67.47
2023-05-10T20:32:54.877Z,67.76
2023-05-10T20:35:22.482Z,67.78
2023-05-10T20:37:50.004Z,68.09
2023-05-10T20:40:17.819Z,68.39
2023-05-10T20:42:45.757Z,68.74
2023-05-10T20:45:13.434Z,68.38
2023-05-10T20:47:41.013Z,68.67
2023-05-10T20:50:11.325Z,68.39
2023-05-10T20:52:38.863Z,68.56
2023-05-10T20:55:07.452Z,69.81
2023-05-10T20:57:34.993Z,69.64
2023-05-10T21:00:03.705Z,69.83
2023-05-10T21:02:31.313Z,69.78
2023-05-10T21:04:58.986Z,69.55
2023-05-10T21:07:27.865Z,69.34
2023-05-10T21:09:55.432Z,69.64
2023-05-10T21:12:22.958Z,69.40
2023-05-10T21:14:50.690Z,69.39
2023-05-10T21:17:19.980Z,69.77
2023-05-10T21:19:47.781Z,69.71
2023-05-10T21:22:15.502Z,69.31
2023-05-10T21:24:44.576Z,69.82
2023-05-10T21:27:12.172Z,69.67
2023-05-10T21:29:39.737Z,69.63
2023-05-10T21:32:07.425Z,69.76
2023-05-10T21:34:35.035Z,69.77
2023-05-10T21:37:02.635Z,69.85
2023-05-10T21:39:30.180Z,69.70
2023-05-10T21:42:00.187Z,69.89
2023-05-10T21:44:27.700Z,70.10
2023-05-10T21:46:55.359Z,70.04
2023-05-10T21:49:22.940Z,70.32
2023-05-10T21:51:50.535Z,70.10
2023-05-10T21:54:18.060Z,70.12
2023-05-10T21:56:45.597Z,69.93
2023-05-10T21:59:14.723Z,69.36
2023-05-10T22:01:43.626Z,68.90
2023-05-10T22:04:11.355Z,68.30
2023-05-10T22:06:38.890Z,67.48
2023-05-10T22:09:06.458Z,67.29
2023-05-10T22:11:34.161Z,65.89
2023-05-10T22:14:01.683Z,64.53
2023-05-10T22:16:30.938Z,64.46
2023-05-10T22:18:58.556Z,63.77
2023-05-10T22:21:26.212Z,63.03
2023-05-10T22:23:53.791Z,62.81
2023-05-10T22:26:21.453Z,62.49
2023-05-10T22:28:49.011Z,62.50
2023-05-10T22:31:16.579Z,62.47
2023-05-10T22:33:45.636Z,62.61
2023-05-10T22:36:15.034Z,64.46
2023-05-10T22:38:42.537Z,67.13
2023-05-10T22:41:10.042Z,68.06
2023-05-10T22:43:37.650Z,68.87
2023-05-10T22:46:05.461Z,69.33
2023-05-10T22:48:35.456Z,69.18
2023-05-10T22:51:04.554Z,69.43
2023-05-10T22:53:32.054Z,69.91
2023-05-10T22:55:59.726Z,69.69
2023-05-10T22:58:27.618Z,69.94
2023-05-10T23:00:55.992Z,70.29
2023-05-10T23:03:23.558Z,69.84
2023-05-10T23:05:51.151Z,70.18
2023-05-10T23:08:20.025Z,69.98
2023-05-10T23:10:47.538Z,70.08
2023-05-10T23:13:15.065Z,69.98
2023-05-10T23:15:43.469Z,69.79
2023-05-10T23:18:11.133Z,69.78
2023-05-10T23:20:38.734Z,70.15
2023-05-10T23:23:06.819Z,70.24
2023-05-10T23:25:36.279Z,70.13
2023-05-10T23:28:03.872Z,70.04
2023-05-10T23:30:31.931Z,70.39
2023-05-10T23:32:59.633Z,70.44
2023-05-10T23:35:27.335Z,70.81
2023-05-10T23:37:54.991Z,70.63
2023-05-10T23:40:22.572Z,70.57
2023-05-10T23:42:51.560Z,70.69
2023-05-10T23:45:19.122Z,70.69
2023-05-10T23:47:46.719Z,70.71
2023-05-10T23:50:14.254Z,70.76
2023-05-10T23:52:41.815Z,70.78
2023-05-10T23:55:10.609Z,70.57
2023-05-10T23:57:38.597Z,70.87
